Kirklareli, Turkey

1:08 AM EET on November 27, 2014 (GMT +0200)
Burgas | Change Station
CLOSE
Current Station
Airport
Location: Burgas,
Elevation: 135 ft
Nearby Weather Stations

Elev 135 ft 42.57 °N, 27.51 °E | Updated 8 minutes ago

Overcast
Overcast
30 °F
Feels Like 21 °F
N
11
Wind Variable Wind from NNE

Today
High -- | Low -- °F
--% Chance of Precip.
Yesterday
High -- | Low -- °F
Precip. -- in
7:14 AM 4:42 PM
Waxing Crescent, 23% visible
Pressure 30.30 in
Visibility 6.2 miles
Clouds Overcast 2600 ft
Windchill 21 °F
Dew Point 25 °F
Humidity 80%
Rainfall 0.00 in
Snow Depth Not available.
UV 0 out of 12
Pollen Not available.
Air Quality Not available.
Flu Activity Not available.
METAR LBBG 262300Z 02005MPS 9999 OVC026 M01/M04 Q1026 NOSIG

More Conditions Fewer Conditions

Pressure 30.30 in
Visibility 6.2 miles
Clouds Overcast 2600 ft
Windchill 21 °F
Dew Point 25 °F
Humidity 80%
Rainfall 0.00 in
Snow Depth Not available.
UV 0 out of 12
Pollen Not available.
Air Quality Not available.
Flu Activity Not available.
METAR LBBG 262300Z 02005MPS 9999 OVC026 M01/M04 Q1026 NOSIG

More Conditions Fewer Conditions

10-Day Weather Forecast

Almanac

Astronomy

Nov. 27, 2014 Rise Set
Actual Time
Civil Twilight
Nautical Twilight
Astronomical Twilight
Moon
Length of Visible Light
Length of Day
Tomorrow will be .
, % of the Moon is Illuminated

Today's Extremes

Country Highs Country Lows

Community

WunderPhotos

Upload Photos

1,773,913 photos uploaded!

WunderBlogs® & News

Nearby

Air Quality

  Air Quality AQ Index Pollutant
Not available.

Snow Depth

Station Depth Elevation

Earthquake Activity

City Distance Mag. Time & Date
Minimum magnitude displayed is 2.5.

Coastal Water Temperatures

Place Temperature

Nearby Weather Stations